Time;durP1;ratioP1;P1;durP2;ratioP2;P2;SDS_P1;SDS_P2;PMS_P1;PMS_P2;Temp;Humidity;BMP_temperature;BMP_pressure;BME280_temperature;BME280_humidity;BME280_pressure;Samples;Min_cycle;Max_cycle;Signal;HPM_P1;HPM_P2
2022/01/04 00:01:31;;;;;;;37.80;5.88;;;;;;;9.71;100.00;96998.66;5072784;27;20056;-59
2022/01/04 00:03:56;;;;;;;30.20;4.97;;;;;;;9.88;100.00;96989.94;5068896;28;20028;-58
2022/01/04 00:06:21;;;;;;;29.70;4.55;;;;;;;9.66;100.00;96985.88;5074050;28;20449;-59
2022/01/04 00:08:47;;;;;;;27.23;4.60;;;;;;;9.64;100.00;96975.53;5072418;28;20017;-59
2022/01/04 00:11:18;;;;;;;30.50;4.85;;;;;;;9.38;100.00;96965.69;5074131;28;20130;-59
2022/01/04 00:13:44;;;;;;;26.73;4.50;;;;;;;9.53;100.00;96966.63;5072248;28;20016;-58
2022/01/04 00:16:11;;;;;;;34.30;5.50;;;;;;;9.66;100.00;96954.63;5076781;28;20036;-58
2022/01/04 00:18:37;;;;;;;29.48;4.65;;;;;;;9.52;100.00;96952.78;5076518;28;20024;-58
2022/01/04 00:21:02;;;;;;;30.65;4.85;;;;;;;9.57;100.00;96944.72;5077254;28;20613;-57
2022/01/04 00:23:28;;;;;;;29.70;4.75;;;;;;;9.46;100.00;96937.47;5075764;28;20445;-60
2022/01/04 00:25:53;;;;;;;28.30;4.60;;;;;;;9.90;100.00;96920.34;5070873;28;20034;-58
2022/01/04 00:28:19;;;;;;;29.92;4.63;;;;;;;10.16;100.00;96917.16;5074793;28;20047;-58
2022/01/04 00:30:44;;;;;;;25.58;4.35;;;;;;;9.65;100.00;96909.53;5072630;28;20046;-57
2022/01/04 00:33:13;;;;;;;31.38;4.53;;;;;;;9.90;100.00;96909.94;5086336;27;20038;-57
2022/01/04 00:35:39;;;;;;;29.95;4.88;;;;;;;9.36;100.00;96913.72;5069925;28;20690;-57
2022/01/04 00:38:05;;;;;;;25.25;4.35;;;;;;;9.35;100.00;96912.00;5074578;28;20052;-56
2022/01/04 00:40:31;;;;;;;31.58;4.63;;;;;;;9.39;100.00;96897.94;5073992;28;20060;-56
2022/01/04 00:42:58;;;;;;;31.08;4.57;;;;;;;9.25;100.00;96903.88;5074367;28;20032;-57
2022/01/04 00:45:27;;;;;;;26.80;4.25;;;;;;;9.28;100.00;96892.44;5076566;28;20044;-57
2022/01/04 00:50:19;;;;;;;30.42;5.07;;;;;;;9.27;100.00;96875.16;5073467;28;20474;-57
2022/01/04 00:52:44;;;;;;;30.58;4.72;;;;;;;9.11;100.00;96869.94;5070212;28;20488;-57
2022/01/04 00:55:10;;;;;;;26.65;4.63;;;;;;;9.51;100.00;96872.16;5073647;28;20040;-57
2022/01/04 00:57:35;;;;;;;26.30;4.35;;;;;;;9.33;100.00;96864.41;5072859;28;20029;-56
2022/01/04 01:00:02;;;;;;;24.30;3.83;;;;;;;9.29;100.00;96864.69;5075631;28;20066;-58
2022/01/04 01:02:27;;;;;;;28.30;4.13;;;;;;;9.43;100.00;96855.19;5073954;28;20123;-59
2022/01/04 01:04:53;;;;;;;25.88;4.25;;;;;;;9.32;100.00;96847.16;5076093;28;20111;-57
2022/01/04 01:07:18;;;;;;;27.85;4.13;;;;;;;9.31;100.00;96845.44;5068706;28;20111;-57
2022/01/04 01:10:01;;;;;;;25.00;4.25;;;;;;;9.50;100.00;96841.84;5075400;28;20664;-56
2022/01/04 01:12:26;;;;;;;27.70;4.45;;;;;;;9.34;100.00;96834.88;5076848;28;20024;-57
2022/01/04 01:14:52;;;;;;;35.83;4.63;;;;;;;9.57;100.00;96830.16;5077941;28;20080;-58
2022/01/04 01:17:17;;;;;;;30.08;4.70;;;;;;;9.37;100.00;96826.88;5073643;28;20067;-58
2022/01/04 01:19:42;;;;;;;28.13;4.28;;;;;;;9.48;100.00;96822.88;5079206;28;20072;-58
2022/01/04 01:22:08;;;;;;;22.33;4.07;;;;;;;9.66;100.00;96814.03;5075444;28;20041;-57
2022/01/04 01:24:33;;;;;;;31.05;4.93;;;;;;;9.40;100.00;96811.13;5044037;28;20036;-57
2022/01/04 01:26:58;;;;;;;29.80;4.43;;;;;;;9.19;100.00;96812.28;5075744;28;20028;-56
2022/01/04 01:29:24;;;;;;;28.63;4.25;;;;;;;9.59;100.00;96797.94;5077539;28;20028;-58
2022/01/04 01:31:49;;;;;;;32.03;5.00;;;;;;;9.37;100.00;96787.84;5076872;28;20035;-57
2022/01/04 01:34:14;;;;;;;28.05;4.32;;;;;;;9.38;100.00;96793.91;5077654;27;20099;-59
2022/01/04 01:36:40;;;;;;;32.33;5.03;;;;;;;9.03;100.00;96801.88;5076319;28;20090;-58
2022/01/04 01:39:05;;;;;;;29.95;4.60;;;;;;;9.43;100.00;96791.91;5070323;28;20024;-57
2022/01/04 01:41:30;;;;;;;22.90;3.90;;;;;;;9.22;100.00;96773.94;5070214;28;20075;-56
2022/01/04 01:43:56;;;;;;;27.98;4.38;;;;;;;9.10;100.00;96778.97;5073674;28;20044;-57
2022/01/04 01:46:21;;;;;;;27.67;4.35;;;;;;;9.16;100.00;96776.06;5070418;28;20036;-57
2022/01/04 01:48:47;;;;;;;32.20;4.70;;;;;;;9.54;100.00;96784.34;5072120;28;20142;-56
2022/01/04 01:51:16;;;;;;;25.58;4.25;;;;;;;9.45;100.00;96771.84;5087157;27;20040;-55
2022/01/04 01:53:42;;;;;;;23.00;3.80;;;;;;;9.13;100.00;96764.03;5073204;28;20023;-57
2022/01/04 01:56:07;;;;;;;25.33;4.18;;;;;;;9.39;100.00;96757.41;5073892;28;20150;-57
2022/01/04 01:58:32;;;;;;;25.50;4.28;;;;;;;9.55;100.00;96754.75;5078677;28;20123;-58
2022/01/04 02:00:58;;;;;;;21.48;3.67;;;;;;;9.42;100.00;96753.78;5076798;28;20044;-57
2022/01/04 02:03:23;;;;;;;33.88;5.10;;;;;;;9.19;100.00;96744.66;5072880;28;20028;-57
2022/01/04 02:05:49;;;;;;;27.80;4.20;;;;;;;9.67;100.00;96754.97;5073918;28;20061;-59
2022/01/04 02:08:16;;;;;;;30.02;4.65;;;;;;;9.50;100.00;96745.53;5041798;28;20323;-57
2022/01/04 02:10:43;;;;;;;28.17;4.45;;;;;;;9.59;100.00;96735.47;5070851;28;20024;-56
2022/01/04 02:13:09;;;;;;;28.73;4.57;;;;;;;9.58;100.00;96732.94;5073341;28;20028;-58
2022/01/04 02:15:34;;;;;;;30.60;4.65;;;;;;;9.39;100.00;96728.78;5084147;27;20097;-57
2022/01/04 02:18:00;;;;;;;24.35;4.32;;;;;;;9.26;100.00;96727.78;5074410;28;20031;-58
2022/01/04 02:20:25;;;;;;;30.80;4.90;;;;;;;9.24;100.00;96727.03;5072623;28;20044;-58
2022/01/04 02:22:52;;;;;;;28.20;4.55;;;;;;;9.33;100.00;96718.69;5073798;28;20031;-58
2022/01/04 02:25:18;;;;;;;25.67;3.95;;;;;;;9.40;100.00;96711.41;5072678;28;20024;-58
2022/01/04 02:27:44;;;;;;;25.13;4.32;;;;;;;9.46;100.00;96708.44;5071752;28;20766;-56
2022/01/04 02:30:14;;;;;;;27.60;4.28;;;;;;;9.57;100.00;96695.63;5074235;28;20032;-56
2022/01/04 02:32:40;;;;;;;26.33;4.55;;;;;;;9.61;100.00;96688.50;5068813;28;20024;-57
2022/01/04 02:35:06;;;;;;;18.73;3.80;;;;;;;9.49;100.00;96690.06;5072247;28;20915;-57
2022/01/04 02:37:33;;;;;;;31.92;4.97;;;;;;;9.27;100.00;96682.63;5074478;28;20064;-58
2022/01/04 02:39:59;;;;;;;27.58;4.80;;;;;;;9.23;100.00;96681.97;5075223;28;20032;-57
2022/01/04 02:42:24;;;;;;;28.85;4.30;;;;;;;9.57;100.00;96667.00;5072591;28;20036;-59
2022/01/04 02:44:49;;;;;;;30.60;4.63;;;;;;;9.82;100.00;96656.00;5075341;28;20879;-59
2022/01/04 02:47:15;;;;;;;30.00;4.57;;;;;;;9.71;100.00;96655.78;5077899;28;20036;-58
2022/01/04 02:49:42;;;;;;;26.20;4.10;;;;;;;9.81;100.00;96672.56;5071212;28;20047;-58
2022/01/04 02:52:07;;;;;;;31.50;4.53;;;;;;;9.57;100.00;96656.59;5071086;28;20666;-56
2022/01/04 02:54:33;;;;;;;24.42;4.03;;;;;;;9.69;100.00;96647.25;5069743;28;20047;-56
2022/01/04 02:56:58;;;;;;;32.53;5.03;;;;;;;9.65;100.00;96648.38;5067771;28;20039;-57
2022/01/04 02:59:23;;;;;;;25.65;4.35;;;;;;;9.82;100.00;96637.75;5075044;28;20039;-59
2022/01/04 03:01:49;;;;;;;30.25;4.60;;;;;;;9.41;100.00;96638.44;5071094;28;20053;-56
2022/01/04 03:04:14;;;;;;;27.10;4.00;;;;;;;9.64;100.00;96639.69;5066972;28;20118;-56
2022/01/04 03:06:40;;;;;;;33.45;4.90;;;;;;;9.51;100.00;96645.72;5070691;28;20037;-59
2022/01/04 03:09:06;;;;;;;20.77;3.88;;;;;;;9.83;100.00;96631.66;5073814;28;20027;-56
2022/01/04 03:11:33;;;;;;;25.05;4.28;;;;;;;9.64;100.00;96636.25;5070300;28;20044;-57
2022/01/04 03:13:59;;;;;;;31.92;4.68;;;;;;;9.68;100.00;96629.94;5072954;28;20028;-57
2022/01/04 03:16:24;;;;;;;28.65;4.60;;;;;;;9.59;100.00;96614.84;5069067;28;20040;-57
2022/01/04 03:19:09;;;;;;;27.80;4.15;;;;;;;9.91;100.00;96609.50;5069867;28;20055;-57
2022/01/04 03:21:42;;;;;;;23.25;3.88;;;;;;;9.68;100.00;96593.50;5070662;28;20067;-57
2022/01/04 03:24:09;;;;;;;22.95;3.65;;;;;;;9.71;100.00;96595.09;5079962;28;20028;-58
2022/01/04 03:26:35;;;;;;;28.17;4.13;;;;;;;9.73;100.00;96588.84;5069855;28;20641;-57
2022/01/04 03:29:01;;;;;;;26.90;4.28;;;;;;;10.03;100.00;96577.50;5070347;28;20123;-57
2022/01/04 03:31:28;;;;;;;28.27;4.35;;;;;;;9.89;100.00;96582.69;5070339;28;20124;-56
2022/01/04 03:33:54;;;;;;;20.27;3.63;;;;;;;9.93;100.00;96581.59;5075464;28;20060;-56
2022/01/04 03:36:21;;;;;;;25.38;3.88;;;;;;;9.82;100.00;96569.22;5076528;28;20619;-56
2022/01/04 03:38:48;;;;;;;25.40;4.03;;;;;;;9.70;100.00;96555.19;5076537;28;20024;-56
2022/01/04 03:41:17;;;;;;;27.45;4.28;;;;;;;9.74;100.00;96561.91;5071068;28;20036;-57
2022/01/04 03:43:43;;;;;;;23.63;3.72;;;;;;;9.34;100.00;96558.25;5075918;28;20639;-57
2022/01/04 03:46:08;;;;;;;25.52;3.97;;;;;;;9.99;100.00;96550.78;5075676;28;20036;-57
2022/01/04 03:48:35;;;;;;;27.02;4.28;;;;;;;10.16;100.00;96552.38;5075458;28;20114;-59
2022/01/04 03:51:01;;;;;;;25.15;4.03;;;;;;;9.51;100.00;96544.22;5076126;28;20460;-59
2022/01/04 03:53:27;;;;;;;29.00;4.22;;;;;;;9.87;100.00;96535.09;5075888;28;20158;-57
2022/01/04 03:55:52;;;;;;;26.02;4.05;;;;;;;10.23;100.00;96527.56;5073557;28;20040;-56
2022/01/04 03:58:17;;;;;;;19.83;3.60;;;;;;;9.98;100.00;96519.63;5073450;28;20106;-59
2022/01/04 04:00:43;;;;;;;26.35;4.35;;;;;;;10.23;100.00;96521.53;5075021;28;20128;-56
2022/01/04 04:03:08;;;;;;;27.67;4.10;;;;;;;10.33;100.00;96514.00;5079050;28;20033;-56
2022/01/04 04:05:33;;;;;;;22.60;3.80;;;;;;;10.36;100.00;96504.22;5078795;28;20034;-56
2022/01/04 04:07:59;;;;;;;23.50;4.25;;;;;;;9.64;100.00;96499.13;5079565;28;20028;-56
2022/01/04 04:10:24;;;;;;;27.38;4.55;;;;;;;10.16;100.00;96489.84;5082447;28;20035;-56
2022/01/04 04:12:50;;;;;;;26.13;4.68;;;;;;;9.94;100.00;96495.53;5073068;28;20025;-58
2022/01/04 04:15:15;;;;;;;25.58;4.32;;;;;;;9.69;100.00;96498.84;5071077;28;20016;-55
2022/01/04 04:17:40;;;;;;;21.90;3.60;;;;;;;9.63;100.00;96499.22;5080992;28;20533;-57
2022/01/04 04:20:06;;;;;;;24.67;3.95;;;;;;;10.22;100.00;96497.25;5071511;28;20710;-59
2022/01/04 04:22:32;;;;;;;24.27;3.97;;;;;;;9.99;100.00;96488.28;5079246;28;20067;-58
2022/01/04 04:24:58;;;;;;;27.33;4.43;;;;;;;10.10;100.00;96486.78;5075421;28;20035;-56
2022/01/04 04:27:23;;;;;;;25.13;4.03;;;;;;;9.92;100.00;96486.16;5075873;28;20923;-56
2022/01/04 04:29:48;;;;;;;29.42;4.53;;;;;;;9.98;100.00;96470.13;5071101;28;20023;-57
2022/01/04 04:32:14;;;;;;;28.23;4.40;;;;;;;9.97;100.00;96473.69;5078816;28;20092;-56
2022/01/04 04:34:39;;;;;;;26.25;4.35;;;;;;;10.12;100.00;96462.28;5091079;27;20446;-57
2022/01/04 04:37:04;;;;;;;22.23;3.60;;;;;;;10.40;100.00;96471.84;5071417;28;20036;-56
2022/01/04 04:39:30;;;;;;;24.30;4.03;;;;;;;10.02;100.00;96458.63;5074681;28;20086;-57
2022/01/04 04:41:56;;;;;;;35.30;5.30;;;;;;;9.98;100.00;96451.91;5075543;28;20040;-58
2022/01/04 04:44:22;;;;;;;26.10;4.25;;;;;;;10.13;100.00;96443.13;5076528;28;20043;-56
2022/01/04 04:46:48;;;;;;;30.55;5.07;;;;;;;9.92;100.00;96434.91;5074590;28;20037;-56
2022/01/04 04:49:14;;;;;;;29.58;4.50;;;;;;;9.91;100.00;96438.47;5077510;28;20035;-56
2022/01/04 04:51:39;;;;;;;29.02;4.47;;;;;;;10.11;100.00;96439.81;5080518;28;20039;-57
2022/01/04 04:54:05;;;;;;;22.92;4.10;;;;;;;10.26;100.00;96422.34;5077959;28;20768;-57
2022/01/04 04:56:30;;;;;;;26.38;4.22;;;;;;;9.82;100.00;96419.03;5076467;28;20461;-58
2022/01/04 04:58:56;;;;;;;28.27;4.55;;;;;;;10.06;100.00;96412.38;5073675;28;20119;-56
2022/01/04 05:01:21;;;;;;;25.58;4.28;;;;;;;10.04;100.00;96412.47;5075099;28;20048;-56
2022/01/04 05:03:47;;;;;;;24.33;4.22;;;;;;;9.90;100.00;96407.31;5071854;28;20039;-57
2022/01/04 05:06:12;;;;;;;25.70;4.35;;;;;;;9.84;100.00;96406.75;5071804;28;20949;-56
2022/01/04 05:08:37;;;;;;;28.92;4.28;;;;;;;9.99;100.00;96396.28;5075291;27;20032;-57
2022/01/04 05:11:03;;;;;;;26.63;4.55;;;;;;;9.77;100.00;96408.06;5076501;28;20035;-58
2022/01/04 05:13:29;;;;;;;23.50;4.07;;;;;;;10.18;100.00;96409.81;5075774;28;20027;-57
2022/01/04 05:15:55;;;;;;;32.97;5.03;;;;;;;10.17;100.00;96402.91;5074522;28;20034;-56
2022/01/04 05:18:20;;;;;;;29.30;4.78;;;;;;;9.95;100.00;96397.44;5075987;28;20028;-57
2022/01/04 05:20:46;;;;;;;26.23;4.47;;;;;;;10.21;100.00;96393.97;5067949;28;20028;-59
2022/01/04 05:23:11;;;;;;;31.33;5.07;;;;;;;9.99;100.00;96391.91;5077368;28;20035;-57
2022/01/04 05:25:36;;;;;;;24.65;4.18;;;;;;;9.92;100.00;96387.19;5080199;28;20685;-57
2022/01/04 05:28:02;;;;;;;33.58;4.82;;;;;;;9.96;100.00;96388.66;5073985;28;20028;-58
2022/01/04 05:30:27;;;;;;;27.75;4.50;;;;;;;10.18;100.00;96377.69;5075104;28;20397;-58
2022/01/04 05:32:53;;;;;;;24.33;4.05;;;;;;;10.08;100.00;96377.47;5075754;28;20023;-59
2022/01/04 05:35:18;;;;;;;23.58;4.25;;;;;;;9.96;100.00;96376.50;5073649;28;20035;-58
2022/01/04 05:37:44;;;;;;;29.55;4.80;;;;;;;9.97;100.00;96378.16;5070836;28;20024;-58
2022/01/04 05:40:10;;;;;;;33.58;5.05;;;;;;;9.79;100.00;96374.13;5073735;28;20513;-58
2022/01/04 05:42:35;;;;;;;28.13;4.47;;;;;;;10.31;100.00;96352.56;5076728;28;20028;-57
2022/01/04 05:45:00;;;;;;;32.65;5.18;;;;;;;10.03;100.00;96369.09;5066872;28;20307;-58
2022/01/04 05:47:26;;;;;;;29.75;4.55;;;;;;;9.79;100.00;96361.13;5073876;28;20035;-57
2022/01/04 05:49:52;;;;;;;21.92;3.97;;;;;;;9.57;100.00;96359.03;5071519;28;20057;-56
2022/01/04 05:52:18;;;;;;;30.30;4.55;;;;;;;9.86;100.00;96356.34;5069092;28;20035;-57
2022/01/04 05:54:45;;;;;;;33.55;5.00;;;;;;;9.94;100.00;96351.47;5067688;28;20937;-56
2022/01/04 05:57:10;;;;;;;28.88;4.35;;;;;;;10.01;100.00;96343.16;5069651;28;20043;-57
2022/01/04 05:59:36;;;;;;;28.30;4.72;;;;;;;10.14;100.00;96335.38;5071044;28;20031;-56
2022/01/04 06:02:02;;;;;;;37.03;5.70;;;;;;;9.74;100.00;96335.38;5068428;27;20031;-57
2022/01/04 06:04:27;;;;;;;20.58;3.90;;;;;;;9.85;100.00;96324.25;5077059;28;20023;-57
2022/01/04 06:06:54;;;;;;;30.02;4.75;;;;;;;9.89;100.00;96319.69;5076447;28;20040;-56
2022/01/04 06:09:25;;;;;;;25.83;4.47;;;;;;;9.88;100.00;96313.66;5078102;28;20065;-56
2022/01/04 06:17:00;;;;;;;23.35;4.10;;;;;;;9.80;100.00;96311.53;5077333;28;20043;-56
2022/01/04 06:19:25;;;;;;;26.13;4.20;;;;;;;10.00;100.00;96305.03;5075230;28;20025;-56
2022/01/04 06:21:50;;;;;;;26.70;4.40;;;;;;;9.88;100.00;96305.00;5073808;28;20060;-57
2022/01/04 06:24:16;;;;;;;26.77;4.15;;;;;;;9.69;100.00;96303.59;5081507;28;20138;-58
2022/01/04 06:26:41;;;;;;;22.63;3.72;;;;;;;9.86;100.00;96293.88;5080379;28;20031;-56
2022/01/04 06:29:08;;;;;;;20.02;3.88;;;;;;;10.04;100.00;96287.44;5076135;28;20027;-57
2022/01/04 06:31:33;;;;;;;20.73;3.35;;;;;;;9.79;100.00;96290.81;5072031;28;20085;-59
2022/01/04 06:33:59;;;;;;;24.77;4.22;;;;;;;9.72;100.00;96290.38;5078337;28;20036;-58
2022/01/04 06:36:24;;;;;;;25.05;4.30;;;;;;;9.72;100.00;96282.56;5074048;28;20024;-57
2022/01/04 06:38:50;;;;;;;25.42;3.67;;;;;;;12.26;100.00;96296.25;5076713;28;20090;-56
2022/01/04 06:41:15;;;;;;;25.65;3.97;;;;;;;12.88;100.00;96281.09;5076453;28;20036;-56
2022/01/04 06:43:40;;;;;;;19.52;3.40;;;;;;;12.30;100.00;96274.16;5079578;28;20030;-56
2022/01/04 06:46:06;;;;;;;23.70;4.30;;;;;;;11.10;100.00;96261.13;5076731;28;20525;-55
2022/01/04 06:48:31;;;;;;;23.45;4.00;;;;;;;12.85;100.00;96263.84;5070667;28;20686;-55
2022/01/04 06:50:57;;;;;;;18.80;3.50;;;;;;;11.47;100.00;96253.28;5077429;28;20713;-56
2022/01/04 06:53:23;;;;;;;25.23;4.32;;;;;;;11.13;100.00;96246.09;5075219;28;20517;-58
2022/01/04 06:55:50;;;;;;;19.23;3.50;;;;;;;12.12;100.00;96239.78;5076705;28;20086;-58
2022/01/04 06:58:16;;;;;;;21.55;3.97;;;;;;;10.77;100.00;96244.28;5075904;28;20322;-56
2022/01/04 07:00:41;;;;;;;20.30;4.03;;;;;;;11.07;100.00;96236.09;5076403;28;20052;-57
2022/01/04 07:03:07;;;;;;;23.63;4.30;;;;;;;10.92;100.00;96235.41;5087320;28;20038;-55
2022/01/04 07:05:35;;;;;;;23.38;3.67;;;;;;;10.03;100.00;96223.25;5074179;28;20124;-56
2022/01/04 07:08:01;;;;;;;20.08;3.30;;;;;;;9.76;100.00;96234.59;5074817;28;20047;-56
2022/01/04 07:10:26;;;;;;;20.13;3.75;;;;;;;9.48;100.00;96232.09;5074876;28;20950;-56
2022/01/04 07:12:52;;;;;;;24.33;4.28;;;;;;;9.42;100.00;96223.75;5079725;28;20111;-57
2022/01/04 07:15:17;;;;;;;24.23;4.07;;;;;;;9.92;100.00;96213.53;5076676;28;20024;-59
2022/01/04 07:17:42;;;;;;;22.55;3.75;;;;;;;9.55;100.00;96222.97;5076480;28;20902;-57
2022/01/04 07:20:09;;;;;;;20.58;3.47;;;;;;;9.59;100.00;96208.81;5073999;28;20533;-58
2022/01/04 07:22:35;;;;;;;24.42;4.20;;;;;;;9.97;100.00;96202.84;5078495;28;20034;-57
2022/01/04 07:25:01;;;;;;;25.88;4.25;;;;;;;9.84;100.00;96214.06;5077327;28;20438;-57
2022/01/04 07:27:26;;;;;;;22.38;3.83;;;;;;;9.95;100.00;96202.13;5078083;28;20078;-56
2022/01/04 07:29:52;;;;;;;20.77;3.90;;;;;;;9.81;100.00;96203.88;5077748;28;20111;-57
2022/01/04 07:32:17;;;;;;;19.52;3.80;;;;;;;10.09;100.00;96196.81;5090225;27;20032;-57
2022/01/04 07:34:42;;;;;;;23.52;3.97;;;;;;;9.31;100.00;96202.81;5075553;28;20036;-57
2022/01/04 07:37:08;;;;;;;19.10;3.53;;;;;;;9.65;100.00;96200.63;5080785;28;20035;-58
2022/01/04 07:39:33;;;;;;;21.50;4.15;;;;;;;10.01;100.00;96194.69;5079956;28;20101;-57
2022/01/04 07:41:58;;;;;;;22.63;4.07;;;;;;;9.27;100.00;96193.53;5080642;28;20036;-58
2022/01/04 07:44:25;;;;;;;20.90;3.75;;;;;;;9.44;100.00;96193.25;5086719;28;20032;-57
2022/01/04 07:46:51;;;;;;;26.83;4.20;;;;;;;9.57;100.00;96197.66;5077157;28;20042;-59
2022/01/04 07:49:16;;;;;;;23.17;3.60;;;;;;;9.52;100.00;96186.72;5075753;28;20024;-58
2022/01/04 07:51:42;;;;;;;25.80;4.40;;;;;;;9.27;100.00;96183.97;5074177;28;20570;-57
2022/01/04 07:54:07;;;;;;;21.15;4.15;;;;;;;9.44;100.00;96182.84;5080351;28;20030;-56
2022/01/04 07:56:32;;;;;;;16.15;3.33;;;;;;;9.68;100.00;96176.97;5080136;28;20462;-57
2022/01/04 07:59:00;;;;;;;24.15;4.05;;;;;;;9.39;100.00;96179.75;5075920;28;20686;-59
2022/01/04 08:01:28;;;;;;;22.23;3.90;;;;;;;9.53;100.00;96181.41;5077880;28;20154;-57
2022/01/04 08:03:53;;;;;;;25.60;3.92;;;;;;;9.61;100.00;96166.16;5094616;27;20033;-57
2022/01/04 08:06:18;;;;;;;27.55;4.32;;;;;;;9.98;100.00;96170.63;5077740;28;20040;-57
2022/01/04 08:08:44;;;;;;;22.85;3.88;;;;;;;9.70;100.00;96169.88;5074846;28;20033;-55
2022/01/04 08:11:09;;;;;;;22.92;4.07;;;;;;;9.55;100.00;96174.34;5079148;28;20043;-55
2022/01/04 08:13:35;;;;;;;23.00;4.00;;;;;;;9.71;100.00;96171.56;5079084;28;20455;-55
2022/01/04 08:16:00;;;;;;;25.52;4.25;;;;;;;9.52;100.00;96176.31;5078850;27;20119;-55
2022/01/04 08:18:25;;;;;;;24.35;4.03;;;;;;;10.02;100.00;96164.31;5080206;28;20035;-55
2022/01/04 08:20:56;;;;;;;26.52;4.45;;;;;;;9.95;100.00;96169.09;5095827;27;20123;-57
2022/01/04 08:23:22;;;;;;;28.30;4.55;;;;;;;9.87;100.00;96166.19;5073270;28;20028;-56
2022/01/04 08:25:47;;;;;;;27.23;4.30;;;;;;;9.63;100.00;96168.63;5078281;28;20032;-56
2022/01/04 08:28:13;;;;;;;23.48;4.57;;;;;;;9.82;100.00;96152.63;5080115;28;20081;-57
2022/01/04 08:30:38;;;;;;;27.02;4.18;;;;;;;10.08;100.00;96156.06;5074634;28;20051;-56
2022/01/04 08:33:04;;;;;;;25.45;4.45;;;;;;;10.03;100.00;96145.97;5074452;28;20025;-58
2022/01/04 08:35:29;;;;;;;24.88;4.47;;;;;;;9.86;100.00;96148.06;5076620;28;20043;-58
2022/01/04 08:37:54;;;;;;;22.00;4.15;;;;;;;9.89;100.00;96147.81;5073980;28;20051;-58
2022/01/04 08:40:20;;;;;;;19.00;3.70;;;;;;;9.83;100.00;96136.91;5075756;28;20023;-59
2022/01/04 08:42:45;;;;;;;22.25;3.92;;;;;;;9.98;100.00;96135.03;5079801;28;20107;-60
2022/01/04 08:45:11;;;;;;;25.67;4.20;;;;;;;9.58;100.00;96134.28;5075742;28;20028;-57
2022/01/04 08:47:37;;;;;;;25.27;4.28;;;;;;;9.78;100.00;96133.78;5077477;28;20060;-59
2022/01/04 08:50:06;;;;;;;19.20;3.67;;;;;;;9.55;100.00;96129.28;5074762;28;20472;-57
2022/01/04 08:52:31;;;;;;;19.90;3.65;;;;;;;9.95;100.00;96122.22;5076391;28;20035;-59
2022/01/04 08:54:56;;;;;;;21.08;3.90;;;;;;;9.98;100.00;96115.94;5074690;28;20031;-60
2022/01/04 08:57:23;;;;;;;17.70;3.40;;;;;;;9.84;100.00;96115.13;5077579;28;20044;-59
2022/01/04 08:59:49;;;;;;;22.98;4.10;;;;;;;10.03;100.00;96103.44;5092116;27;20063;-58
2022/01/04 09:02:14;;;;;;;20.73;3.88;;;;;;;10.09;100.00;96096.97;5076598;28;20138;-58
2022/01/04 09:04:39;;;;;;;19.05;3.80;;;;;;;10.23;100.00;96100.28;5074612;28;20032;-59
2022/01/04 09:07:05;;;;;;;22.25;3.97;;;;;;;10.13;100.00;96096.66;5080333;28;20470;-57
2022/01/04 09:09:31;;;;;;;22.08;4.30;;;;;;;10.28;100.00;96093.94;5079066;28;20037;-57
2022/01/04 09:11:56;;;;;;;22.40;4.18;;;;;;;10.43;100.00;96089.44;5073887;28;20712;-58
2022/01/04 09:14:29;;;;;;;22.60;3.92;;;;;;;10.06;100.00;96087.63;5079036;28;20036;-58
2022/01/04 09:19:39;;;;;;;16.65;3.50;;;;;;;10.12;100.00;96096.78;5072050;28;20051;-58
2022/01/04 09:22:05;;;;;;;26.73;4.40;;;;;;;10.16;100.00;96087.78;5082928;28;20039;-60
2022/01/04 09:24:31;;;;;;;21.58;4.22;;;;;;;10.01;100.00;96089.69;5065396;28;20031;-58
2022/01/04 09:26:57;;;;;;;27.85;4.75;;;;;;;9.83;100.00;96081.38;5072369;28;20035;-57
2022/01/04 09:29:23;;;;;;;21.10;3.60;;;;;;;9.90;100.00;96080.00;5093919;27;20095;-59
2022/01/04 09:31:51;;;;;;;26.83;4.15;;;;;;;10.32;100.00;96066.75;5077226;28;20103;-57
2022/01/04 09:34:17;;;;;;;21.92;4.07;;;;;;;10.30;100.00;96069.44;5079546;28;20086;-59
2022/01/04 09:36:43;;;;;;;24.10;4.35;;;;;;;10.23;100.00;96068.19;5071481;28;20551;-57
2022/01/04 09:39:15;;;;;;;21.42;3.92;;;;;;;10.51;100.00;96059.28;5081111;28;20363;-58
2022/01/04 09:41:41;;;;;;;22.83;3.90;;;;;;;10.29;100.00;96057.31;5074092;28;20135;-57
2022/01/04 09:44:07;;;;;;;19.65;3.67;;;;;;;10.67;100.00;96053.78;5077505;28;20020;-57
2022/01/04 09:46:33;;;;;;;23.60;4.22;;;;;;;10.20;100.00;96043.19;5080106;28;20037;-57
2022/01/04 09:48:59;;;;;;;24.15;4.10;;;;;;;10.67;100.00;96045.16;5069914;28;20032;-59
2022/01/04 09:51:26;;;;;;;22.98;4.20;;;;;;;10.73;100.00;96039.47;5076495;28;20047;-56
2022/01/04 09:53:51;;;;;;;19.83;3.75;;;;;;;10.96;100.00;96036.00;5076816;28;20379;-59
2022/01/04 09:56:17;;;;;;;21.63;3.95;;;;;;;10.77;100.00;96033.09;5081536;28;20501;-59
2022/01/04 09:58:42;;;;;;;19.80;3.80;;;;;;;11.01;100.00;96022.66;5073767;28;20565;-61
2022/01/04 10:01:21;;;;;;;19.98;3.85;;;;;;;11.18;100.00;96019.59;5071501;28;20194;-58
2022/01/04 10:03:47;;;;;;;23.27;4.10;;;;;;;11.08;100.00;96012.56;5075149;28;20501;-57
2022/01/04 10:06:16;;;;;;;16.58;3.53;;;;;;;11.21;100.00;96000.25;5081525;28;20290;-57
2022/01/04 10:09:00;;;;;;;21.05;3.92;;;;;;;10.64;100.00;95991.44;5075713;28;20063;-57
2022/01/04 10:11:43;;;;;;;19.48;3.80;;;;;;;11.06;100.00;95985.78;5075808;28;20044;-61
2022/01/04 10:14:43;;;;;;;20.58;3.83;;;;;;;10.79;100.00;95982.50;5092948;27;20021;-55
2022/01/04 10:17:13;;;;;;;23.45;4.15;;;;;;;10.91;100.00;95975.53;5079008;28;20135;-56
2022/01/04 10:19:53;;;;;;;19.35;3.55;;;;;;;10.74;100.00;95970.75;5076486;28;20051;-55
2022/01/04 10:22:27;;;;;;;19.48;3.58;;;;;;;10.78;100.00;95982.63;5075985;28;20079;-56
2022/01/04 10:25:02;;;;;;;20.77;3.90;;;;;;;10.85;100.00;95975.19;5078385;28;20031;-55
2022/01/04 10:27:31;;;;;;;21.60;4.03;;;;;;;10.82;100.00;95971.00;5075481;28;20159;-55
2022/01/04 10:30:12;;;;;;;21.55;3.92;;;;;;;10.66;100.00;95970.47;5079643;28;20038;-59
2022/01/04 10:32:48;;;;;;;24.13;4.10;;;;;;;11.13;100.00;95961.72;5075305;28;20040;-59
2022/01/04 10:35:40;;;;;;;22.83;4.20;;;;;;;11.35;100.00;95953.06;5075402;28;20109;-56
2022/01/04 10:38:22;;;;;;;21.15;4.07;;;;;;;11.16;100.00;95945.81;5070903;28;20116;-56
2022/01/04 10:41:05;;;;;;;22.73;3.83;;;;;;;11.03;100.00;95941.66;5079671;28;20039;-56
2022/01/04 10:43:30;;;;;;;;;;;;;;;11.46;100.00;95935.75;5075794;28;20020;-57
2022/01/04 10:45:56;;;;;;;25.83;4.20;;;;;;;11.19;100.00;95931.72;5072281;28;19924;-58
2022/01/04 10:48:23;;;;;;;21.50;3.95;;;;;;;11.22;100.00;95923.66;5074233;28;20028;-57
2022/01/04 10:50:54;;;;;;;20.13;3.85;;;;;;;11.01;100.00;95923.53;5070670;28;20193;-58
2022/01/04 10:53:27;;;;;;;25.53;4.27;;;;;;;11.45;100.00;95921.03;5072435;28;20121;-57
2022/01/04 10:55:58;;;;;;;;;;;;;;;11.43;100.00;95915.13;5074491;28;20040;-57
2022/01/04 10:58:31;;;;;;;24.73;4.05;;;;;;;11.30;100.00;95916.09;5069371;28;20596;-58
2022/01/04 11:01:02;;;;;;;20.98;3.97;;;;;;;11.38;100.00;95905.88;5078573;28;20565;-57
2022/01/04 11:03:30;;;;;;;17.40;3.78;;;;;;;11.37;100.00;95904.19;5074239;28;20038;-59
2022/01/04 11:06:03;;;;;;;22.50;4.28;;;;;;;11.26;100.00;95905.97;5075033;28;20057;-57
2022/01/04 11:08:28;;;;;;;23.85;4.47;;;;;;;11.64;100.00;95897.78;5092555;28;20066;-59
2022/01/04 11:10:55;;;;;;;18.95;3.75;;;;;;;11.21;100.00;95902.88;5094597;28;20118;-57
2022/01/04 11:13:21;;;;;;;27.00;4.32;;;;;;;11.36;100.00;95892.09;5074010;28;20081;-57
2022/01/04 11:15:47;;;;;;;19.90;3.92;;;;;;;11.55;100.00;95885.44;5076631;28;20064;-57
2022/01/04 11:18:12;;;;;;;20.40;4.10;;;;;;;11.57;100.00;95883.53;5076185;28;20185;-59
2022/01/04 11:20:40;;;;;;;22.45;4.10;;;;;;;11.49;100.00;95881.53;5078415;28;20035;-59
2022/01/04 11:23:06;;;;;;;20.85;3.92;;;;;;;11.64;100.00;95879.50;5080813;28;20059;-59
2022/01/04 11:25:32;;;;;;;20.13;3.90;;;;;;;11.72;100.00;95869.25;5082352;28;20230;-57
2022/01/04 11:27:57;;;;;;;20.67;4.20;;;;;;;11.50;100.00;95858.88;5079027;28;20038;-58
2022/01/04 11:30:48;;;;;;;17.67;3.75;;;;;;;11.68;100.00;95853.97;5078988;28;20050;-56